Time;durP1;ratioP1;P1;durP2;ratioP2;P2;SDS_P1;SDS_P2;PMS_P1;PMS_P2;Temp;Humidity;BMP_temperature;BMP_pressure;BME280_temperature;BME280_humidity;BME280_pressure;Samples;Min_cycle;Max_cycle;Signal;HPM_P1;HPM_P2
2023/03/10 00:02:12;;;;;;;1.13;0.80;;;22.20;37.50;;;;;;5042485;27;89173;-66
2023/03/10 00:04:40;;;;;;;0.97;0.43;;;22.20;37.60;;;;;;5042061;27;88836;-66
2023/03/10 00:07:08;;;;;;;0.70;0.40;;;22.10;37.50;;;;;;5042414;27;87126;-66
2023/03/10 00:09:36;;;;;;;0.50;0.50;;;22.00;37.50;;;;;;5041768;28;86903;-66
2023/03/10 00:12:04;;;;;;;0.40;0.40;;;21.90;37.40;;;;;;5042093;28;90228;-66
2023/03/10 00:14:32;;;;;;;0.70;0.60;;;21.90;37.50;;;;;;5041908;28;88541;-66
2023/03/10 00:17:00;;;;;;;1.00;0.73;;;21.80;37.50;;;;;;5042539;27;87056;-66
2023/03/10 00:19:30;;;;;;;0.30;0.30;;;21.80;37.50;;;;;;5042669;27;87041;-66
2023/03/10 00:21:58;;;;;;;0.43;0.43;;;21.70;37.90;;;;;;5042242;28;89201;-66
2023/03/10 00:24:26;;;;;;;0.47;0.47;;;21.60;37.50;;;;;;5041508;28;89171;-66
2023/03/10 00:26:54;;;;;;;0.70;0.67;;;21.60;37.50;;;;;;5041754;27;87121;-66
2023/03/10 00:29:22;;;;;;;0.47;0.47;;;21.50;37.50;;;;;;5042886;28;86350;-66
2023/03/10 00:31:50;;;;;;;0.30;0.30;;;21.50;37.50;;;;;;5043097;27;87206;-66
2023/03/10 00:34:17;;;;;;;0.60;0.40;;;21.40;37.50;;;;;;5042955;27;88376;-66
2023/03/10 00:36:47;;;;;;;0.50;0.50;;;21.40;37.60;;;;;;5042171;27;87880;-66
2023/03/10 00:39:15;;;;;;;0.73;0.60;;;21.40;37.60;;;;;;5043529;27;87129;-66
2023/03/10 00:41:43;;;;;;;0.87;0.50;;;21.30;37.50;;;;;;5043128;27;88888;-66
2023/03/10 00:44:11;;;;;;;0.50;0.50;;;21.30;37.50;;;;;;5043315;27;88728;-66
2023/03/10 00:46:39;;;;;;;0.87;0.87;;;21.30;37.50;;;;;;5043473;28;87057;-66
2023/03/10 00:49:07;;;;;;;0.60;0.60;;;21.20;37.50;;;;;;5044406;27;87071;-66
2023/03/10 00:51:35;;;;;;;0.80;0.63;;;21.20;37.50;;;;;;5043034;27;91766;-66
2023/03/10 00:54:04;;;;;;;0.53;0.53;;;21.20;37.60;;;;;;5043448;27;88562;-66
2023/03/10 00:56:32;;;;;;;0.40;0.40;;;21.20;37.60;;;;;;5042973;28;86961;-66
2023/03/10 00:59:00;;;;;;;0.60;0.60;;;21.10;38.20;;;;;;5042967;28;88030;-66
2023/03/10 01:01:29;;;;;;;0.30;0.30;;;21.10;37.50;;;;;;5042002;27;89897;-66
2023/03/10 01:03:59;;;;;;;0.53;0.53;;;21.10;37.50;;;;;;5042531;27;89857;-66
2023/03/10 01:06:27;;;;;;;0.73;0.63;;;21.00;37.50;;;;;;5042835;27;87029;-66
2023/03/10 01:08:55;;;;;;;0.73;0.73;;;21.00;37.50;;;;;;5032282;28;87043;-66
2023/03/10 01:11:25;;;;;;;0.77;0.63;;;21.00;37.50;;;;;;5042861;27;87920;-66
2023/03/10 01:13:54;;;;;;;0.50;0.50;;;21.00;37.50;;;;;;5042891;28;88918;-66
2023/03/10 01:16:22;;;;;;;0.53;0.53;;;21.00;37.60;;;;;;5043093;27;86849;-66
2023/03/10 01:18:50;;;;;;;0.90;0.90;;;20.90;37.50;;;;;;5043267;27;86152;-66
2023/03/10 01:21:19;;;;;;;0.77;0.60;;;20.90;37.50;;;;;;5043984;27;88917;-66
2023/03/10 01:23:47;;;;;;;1.40;0.43;;;20.90;37.50;;;;;;5042725;27;87830;-66
2023/03/10 01:26:15;;;;;;;0.67;0.43;;;20.90;37.50;;;;;;5042783;28;88015;-66
2023/03/10 01:28:47;;;;;;;0.40;0.40;;;20.80;37.40;;;;;;5042539;27;86909;-66
2023/03/10 01:31:15;;;;;;;0.60;0.50;;;20.80;37.50;;;;;;5042206;27;89270;-66
2023/03/10 01:33:44;;;;;;;0.50;0.50;;;20.80;37.50;;;;;;5042398;27;89006;-66
2023/03/10 01:36:14;;;;;;;0.50;0.50;;;20.80;37.50;;;;;;5042205;28;87359;-66
2023/03/10 01:38:42;;;;;;;0.63;0.63;;;20.70;37.40;;;;;;5042339;28;86997;-66
2023/03/10 01:41:11;;;;;;;0.63;0.63;;;20.70;37.40;;;;;;5041937;27;88950;-66
2023/03/10 01:43:39;;;;;;;0.47;0.47;;;20.70;38.10;;;;;;5042489;27;88947;-66
2023/03/10 01:46:54;;;;;;;0.57;0.57;;;20.70;37.50;;;;;;5039561;27;87094;-66
2023/03/10 01:49:33;;;;;;;1.33;0.63;;;20.60;37.50;;;;;;5030133;27;87090;-66
2023/03/10 01:52:03;;;;;;;0.33;0.33;;;20.60;37.40;;;;;;5038441;27;89893;-66
2023/03/10 01:54:36;;;;;;;1.37;1.07;;;20.60;37.50;;;;;;5041828;28;89762;-66
2023/03/10 01:57:05;;;;;;;1.03;0.70;;;20.60;37.50;;;;;;5041493;27;87234;-66
2023/03/10 01:59:32;;;;;;;0.37;0.37;;;20.60;37.50;;;;;;5041829;27;87737;-66
2023/03/10 02:02:00;;;;;;;0.97;0.97;;;20.60;37.50;;;;;;5042337;28;89140;-66
2023/03/10 02:04:34;;;;;;;0.60;0.60;;;20.50;37.40;;;;;;5041984;28;88860;-66
2023/03/10 02:07:03;;;;;;;0.47;0.47;;;20.50;37.50;;;;;;5041957;28;87145;-66
2023/03/10 02:09:32;;;;;;;0.40;0.40;;;20.50;37.40;;;;;;5042232;27;85989;-66
2023/03/10 02:12:00;;;;;;;0.47;0.47;;;20.50;37.50;;;;;;5041712;27;89468;-66
2023/03/10 02:14:30;;;;;;;0.50;0.50;;;20.50;37.40;;;;;;5041574;27;88798;-66
2023/03/10 02:16:58;;;;;;;0.50;0.50;;;20.50;37.50;;;;;;5041139;27;87974;-66
2023/03/10 02:19:43;;;;;;;0.57;0.57;;;20.40;37.40;;;;;;5042066;28;87227;-66
2023/03/10 02:22:11;;;;;;;0.60;0.60;;;20.40;37.40;;;;;;5040964;28;87950;-66
2023/03/10 02:24:43;;;;;;;0.70;0.63;;;20.40;37.40;;;;;;5040499;28;89178;-66
2023/03/10 02:27:18;;;;;;;0.60;0.60;;;20.40;37.50;;;;;;5040910;27;88650;-66
2023/03/10 02:29:48;;;;;;;0.70;0.60;;;20.40;37.50;;;;;;5041189;27;87177;-66
2023/03/10 02:32:26;;;;;;;0.53;0.50;;;20.40;37.50;;;;;;5040960;27;89098;-66
2023/03/10 02:34:54;;;;;;;0.60;0.60;;;20.40;37.50;;;;;;5041137;27;88850;-66
2023/03/10 02:37:23;;;;;;;0.73;0.73;;;20.30;37.40;;;;;;5040842;27;86968;-66
2023/03/10 02:39:51;;;;;;;0.37;0.37;;;20.30;37.40;;;;;;5041374;27;87169;-66
2023/03/10 02:42:21;;;;;;;0.67;0.67;;;20.30;37.40;;;;;;5040293;28;89691;-66
2023/03/10 02:44:49;;;;;;;1.50;0.50;;;20.30;37.40;;;;;;5041481;27;89047;-66
2023/03/10 02:47:17;;;;;;;0.47;0.47;;;20.30;37.40;;;;;;5041308;27;87273;-66
2023/03/10 02:49:45;;;;;;;0.80;0.80;;;20.30;37.40;;;;;;5040587;27;86881;-66
2023/03/10 02:52:19;;;;;;;0.50;0.50;;;20.30;38.10;;;;;;5035253;28;88489;-66
2023/03/10 02:54:47;;;;;;;1.00;0.73;;;20.30;37.40;;;;;;5030947;27;88889;-66
2023/03/10 02:57:16;;;;;;;0.40;0.40;;;20.20;37.40;;;;;;5044182;27;87149;-66
2023/03/10 02:59:45;;;;;;;0.50;0.50;;;20.20;37.40;;;;;;5045174;28;86260;-66
2023/03/10 03:02:13;;;;;;;2.83;0.97;;;20.20;37.40;;;;;;5035281;28;89166;-66
2023/03/10 03:04:41;;;;;;;0.70;0.70;;;20.20;37.40;;;;;;5043525;27;88793;-66
2023/03/10 03:07:09;;;;;;;1.00;0.50;;;20.20;37.40;;;;;;5044112;28;87915;-66
2023/03/10 03:09:37;;;;;;;0.90;0.90;;;20.10;37.30;;;;;;5044535;27;87154;-66
2023/03/10 03:12:05;;;;;;;0.60;0.60;;;20.20;37.40;;;;;;5043971;28;89244;-66
2023/03/10 03:14:33;;;;;;;0.47;0.47;;;20.10;37.40;;;;;;5044608;27;88965;-66
2023/03/10 03:17:02;;;;;;;0.60;0.50;;;20.10;37.40;;;;;;5044926;27;87219;-66
2023/03/10 03:19:30;;;;;;;0.80;0.80;;;20.10;37.40;;;;;;5044797;27;87052;-66
2023/03/10 03:21:58;;;;;;;0.33;0.33;;;20.10;37.40;;;;;;5042842;27;89067;-66
2023/03/10 03:24:26;;;;;;;0.53;0.50;;;20.10;37.40;;;;;;5043886;28;88913;-66
2023/03/10 03:26:54;;;;;;;0.67;0.37;;;20.10;37.40;;;;;;5044226;28;86986;-66
2023/03/10 03:29:22;;;;;;;0.63;0.63;;;20.10;37.40;;;;;;5045101;27;87000;-66
2023/03/10 03:31:50;;;;;;;0.67;0.60;;;20.10;37.40;;;;;;5042942;27;90139;-67
2023/03/10 03:34:20;;;;;;;0.87;0.50;;;20.00;37.40;;;;;;5043624;27;89902;-66
2023/03/10 03:36:48;;;;;;;0.70;0.50;;;20.00;37.40;;;;;;5043209;27;87010;-66
2023/03/10 03:39:16;;;;;;;0.40;0.40;;;20.00;37.40;;;;;;5043919;28;87147;-66
2023/03/10 03:41:44;;;;;;;0.50;0.47;;;20.00;37.40;;;;;;5043928;27;89131;-66
2023/03/10 03:44:12;;;;;;;0.50;0.50;;;20.00;37.40;;;;;;5043614;27;88860;-66
2023/03/10 03:46:40;;;;;;;0.80;0.80;;;20.00;37.40;;;;;;5044180;28;86911;-66
2023/03/10 03:49:09;;;;;;;1.17;0.90;;;20.00;37.40;;;;;;5044952;28;86265;-66
2023/03/10 03:51:38;;;;;;;0.70;0.70;;;20.00;37.40;;;;;;5042493;27;88988;-66
2023/03/10 03:54:06;;;;;;;0.40;0.40;;;20.00;37.40;;;;;;5043206;28;88735;-66
2023/03/10 03:56:34;;;;;;;0.60;0.60;;;20.00;37.40;;;;;;5043823;27;88033;-66
2023/03/10 03:59:02;;;;;;;0.50;0.50;;;19.90;37.40;;;;;;5044104;27;86964;-66
2023/03/10 04:01:30;;;;;;;0.40;0.40;;;19.90;37.40;;;;;;5042852;27;89571;-66
2023/03/10 04:03:58;;;;;;;0.40;0.40;;;19.90;37.40;;;;;;5043656;28;87788;-66
2023/03/10 04:06:26;;;;;;;0.50;0.50;;;19.90;38.10;;;;;;5043778;27;87038;-66
2023/03/10 04:08:56;;;;;;;0.50;0.40;;;19.90;37.40;;;;;;5042922;28;86710;-66
2023/03/10 04:11:23;;;;;;;0.50;0.50;;;19.90;37.40;;;;;;5042589;27;88839;-66
2023/03/10 04:13:51;;;;;;;0.60;0.60;;;19.90;37.50;;;;;;5043255;27;88893;-66
2023/03/10 04:16:19;;;;;;;0.47;0.47;;;19.90;37.40;;;;;;5043257;27;86965;-66
2023/03/10 04:18:47;;;;;;;1.03;0.70;;;19.90;37.40;;;;;;5044345;28;86915;-66
2023/03/10 04:21:16;;;;;;;0.37;0.37;;;19.80;37.40;;;;;;5042981;27;89787;-66
2023/03/10 04:23:44;;;;;;;0.70;0.70;;;19.90;37.40;;;;;;5042388;28;88710;-66
2023/03/10 04:26:14;;;;;;;0.40;0.40;;;19.80;37.40;;;;;;5043387;27;86788;-66
2023/03/10 04:28:42;;;;;;;0.87;0.80;;;19.80;37.40;;;;;;5043504;27;87282;-66
2023/03/10 04:31:12;;;;;;;1.30;0.53;;;19.80;38.00;;;;;;5042714;28;89372;-66
2023/03/10 04:33:40;;;;;;;0.30;0.30;;;19.80;37.40;;;;;;5043285;27;88562;-66
2023/03/10 04:36:08;;;;;;;0.53;0.50;;;19.80;37.40;;;;;;5043105;27;87130;-66
2023/03/10 04:38:37;;;;;;;0.70;0.67;;;19.80;37.50;;;;;;5041774;27;86351;-66
2023/03/10 04:41:05;;;;;;;0.40;0.40;;;19.80;37.50;;;;;;5042628;27;89061;-66
2023/03/10 04:43:34;;;;;;;0.37;0.37;;;19.80;37.50;;;;;;5043831;28;88871;-66
2023/03/10 04:46:02;;;;;;;0.40;0.40;;;19.70;37.40;;;;;;5042497;27;87938;-66
2023/03/10 04:48:30;;;;;;;0.73;0.60;;;19.70;37.40;;;;;;5042533;28;87072;-66
2023/03/10 04:50:58;;;;;;;0.30;0.30;;;19.70;37.40;;;;;;5042760;27;88353;-66
2023/03/10 04:53:26;;;;;;;0.53;0.53;;;19.70;37.40;;;;;;5042283;28;88902;-66
2023/03/10 04:55:54;;;;;;;0.50;0.50;;;19.70;37.40;;;;;;5043294;27;87011;-66
2023/03/10 04:58:22;;;;;;;0.77;0.57;;;19.70;37.40;;;;;;5042199;28;87012;-66
2023/03/10 05:00:52;;;;;;;0.57;0.57;;;19.70;37.40;;;;;;5042402;27;88793;-66
2023/03/10 05:03:30;;;;;;;0.40;0.40;;;19.70;37.50;;;;;;5038303;27;89022;-66
2023/03/10 05:05:58;;;;;;;0.30;0.30;;;19.70;37.40;;;;;;5036860;27;88354;-66
2023/03/10 05:08:26;;;;;;;0.50;0.50;;;19.60;37.40;;;;;;5036151;28;87166;-66
2023/03/10 05:10:54;;;;;;;0.40;0.30;;;19.60;37.40;;;;;;5038112;27;88982;-66
2023/03/10 05:13:22;;;;;;;0.70;0.40;;;19.60;37.40;;;;;;5042359;27;89900;-66
2023/03/10 05:15:50;;;;;;;1.17;0.70;;;19.60;37.40;;;;;;5040876;28;88504;-66
2023/03/10 05:18:19;;;;;;;0.47;0.40;;;19.60;37.40;;;;;;5042636;27;87207;-66
2023/03/10 05:20:52;;;;;;;0.70;0.70;;;19.70;37.50;;;;;;5042391;28;89032;-65
2023/03/10 05:23:20;;;;;;;0.40;0.33;;;19.70;37.40;;;;;;5042422;27;88689;-66
2023/03/10 05:25:48;;;;;;;0.60;0.60;;;19.80;37.50;;;;;;5040763;27;87111;-66
2023/03/10 05:28:16;;;;;;;0.40;0.40;;;19.90;37.40;;;;;;5037411;28;86265;-66
2023/03/10 05:30:44;;;;;;;0.57;0.57;;;20.10;37.40;;;;;;5041413;27;89108;-66
2023/03/10 05:33:12;;;;;;;0.50;0.50;;;20.20;37.40;;;;;;5042275;27;88648;-66
2023/03/10 05:35:41;;;;;;;0.40;0.40;;;20.30;37.30;;;;;;5041186;28;87685;-66
2023/03/10 05:38:09;;;;;;;0.63;0.63;;;20.40;37.30;;;;;;5059576;27;86943;-66
2023/03/10 05:40:37;;;;;;;0.50;0.50;;;20.50;37.30;;;;;;5042984;28;88804;-63
2023/03/10 05:43:05;;;;;;;0.63;0.50;;;20.50;37.30;;;;;;5042218;27;88651;-61
2023/03/10 05:45:33;;;;;;;0.37;0.30;;;20.50;37.30;;;;;;5043054;27;86991;-65
2023/03/10 05:48:01;;;;;;;0.60;0.60;;;20.60;37.40;;;;;;5053147;27;87021;-63
2023/03/10 05:50:29;;;;;;;0.60;0.60;;;20.60;37.50;;;;;;5048280;27;88203;-67
2023/03/10 05:52:58;;;;;;;1.30;0.50;;;20.60;38.20;;;;;;5041865;28;89206;-66
2023/03/10 05:55:28;;;;;;;0.40;0.40;;;20.60;37.60;;;;;;5041763;28;87837;-67
2023/03/10 05:57:57;;;;;;;0.40;0.40;;;20.60;37.70;;;;;;5040568;27;86981;-66
2023/03/10 06:00:26;;;;;;;0.40;0.40;;;20.60;37.70;;;;;;5039988;28;90059;-68
2023/03/10 06:02:54;;;;;;;0.40;0.40;;;20.60;37.80;;;;;;5041456;28;89905;-70
2023/03/10 06:05:22;;;;;;;0.40;0.40;;;20.60;37.90;;;;;;5041669;28;87054;-68
2023/03/10 06:07:51;;;;;;;0.40;0.40;;;20.50;37.90;;;;;;5042670;27;87070;-68
2023/03/10 06:10:20;;;;;;;0.40;0.40;;;20.50;38.00;;;;;;5062108;27;87475;-68
2023/03/10 06:12:48;;;;;;;0.33;0.33;;;20.50;38.10;;;;;;5062187;27;88761;-68
2023/03/10 06:15:16;;;;;;;0.40;0.40;;;20.40;38.10;;;;;;5062545;27;86970;-68
2023/03/10 06:17:44;;;;;;;0.40;0.40;;;20.40;38.70;;;;;;5061641;27;86172;-68
2023/03/10 06:20:13;;;;;;;1.33;0.50;;;20.40;38.20;;;;;;5041866;27;89045;-68
2023/03/10 06:22:40;;;;;;;0.27;0.27;;;20.40;38.30;;;;;;5041525;27;88471;-68
2023/03/10 06:25:10;;;;;;;0.40;0.40;;;20.30;38.20;;;;;;5041480;28;88004;-68
2023/03/10 06:27:39;;;;;;;0.40;0.37;;;20.30;38.20;;;;;;5042140;27;87297;-67
2023/03/10 06:30:08;;;;;;;0.40;0.40;;;20.30;38.30;;;;;;5040060;27;88058;-68
2023/03/10 06:32:36;;;;;;;0.60;0.60;;;20.20;38.30;;;;;;5040991;28;87580;-67
2023/03/10 06:35:04;;;;;;;0.50;0.50;;;20.20;38.30;;;;;;5041464;27;86741;-68
2023/03/10 06:37:32;;;;;;;0.50;0.40;;;20.10;38.20;;;;;;5040934;27;87055;-67
2023/03/10 06:40:00;;;;;;;0.43;0.43;;;20.10;38.90;;;;;;5041275;28;89096;-68
2023/03/10 06:42:28;;;;;;;0.20;0.20;;;20.10;38.30;;;;;;5042129;27;88785;-67
2023/03/10 06:44:58;;;;;;;0.40;0.40;;;20.10;38.30;;;;;;5041622;27;87045;-67
2023/03/10 06:47:26;;;;;;;0.57;0.53;;;20.10;38.30;;;;;;5042015;28;87025;-67
2023/03/10 06:49:54;;;;;;;0.60;0.60;;;20.10;38.30;;;;;;5040922;28;90300;-67
2023/03/10 06:52:22;;;;;;;0.23;0.23;;;20.10;38.30;;;;;;5041014;28;90193;-67
2023/03/10 06:54:50;;;;;;;0.27;0.27;;;20.00;38.30;;;;;;5041777;27;87068;-67
2023/03/10 06:57:18;;;;;;;0.77;0.63;;;20.00;38.30;;;;;;5040837;27;86964;-67
2023/03/10 06:59:47;;;;;;;2.60;0.50;;;20.00;38.90;;;;;;5041548;27;89077;-67
2023/03/10 07:02:18;;;;;;;0.50;0.50;;;20.00;38.30;;;;;;5041095;28;89000;-67
2023/03/10 07:04:46;;;;;;;4.47;0.53;;;20.00;38.30;;;;;;5040945;28;87009;-67
2023/03/10 07:07:14;;;;;;;0.93;0.50;;;20.00;38.40;;;;;;5041027;27;86300;-67
2023/03/10 07:09:42;;;;;;;0.37;0.37;;;20.00;38.30;;;;;;5040959;27;89106;-67
2023/03/10 07:12:10;;;;;;;0.70;0.70;;;19.90;38.20;;;;;;5041361;27;87768;-67
2023/03/10 07:14:38;;;;;;;0.50;0.50;;;19.90;38.20;;;;;;5040547;27;88021;-67
2023/03/10 07:17:06;;;;;;;0.33;0.33;;;19.90;38.30;;;;;;5024517;28;87210;-68
2023/03/10 07:19:36;;;;;;;0.40;0.40;;;19.90;38.30;;;;;;5040678;27;89134;-67
2023/03/10 07:22:04;;;;;;;0.27;0.27;;;19.90;38.30;;;;;;5040814;28;88899;-67
2023/03/10 07:24:32;;;;;;;0.13;0.13;;;19.90;38.90;;;;;;5040208;28;86928;-68
2023/03/10 07:27:00;;;;;;;0.50;0.50;;;19.90;38.30;;;;;;5041016;27;86722;-68
2023/03/10 07:29:28;;;;;;;3.87;0.50;;;19.80;38.20;;;;;;5040044;28;89482;-67
2023/03/10 07:31:56;;;;;;;0.30;0.30;;;19.80;38.20;;;;;;5040323;28;88886;-67
2023/03/10 07:34:24;;;;;;;0.37;0.37;;;19.80;38.20;;;;;;5040459;28;86851;-67
2023/03/10 07:36:54;;;;;;;0.50;0.50;;;19.80;38.20;;;;;;5040822;28;86892;-67
2023/03/10 07:39:22;;;;;;;0.43;0.43;;;19.80;38.20;;;;;;5040849;27;89519;-67
2023/03/10 07:41:49;;;;;;;1.57;0.50;;;19.80;38.20;;;;;;5041601;27;90036;-67
2023/03/10 07:44:18;;;;;;;2.17;0.77;;;19.80;38.20;;;;;;5044575;28;88055;-67
2023/03/10 07:46:45;;;;;;;1.50;0.57;;;19.80;38.80;;;;;;5043773;27;87182;-67
2023/03/10 07:49:13;;;;;;;0.33;0.33;;;19.80;38.20;;;;;;5044373;27;89106;-67
2023/03/10 07:51:41;;;;;;;0.33;0.33;;;19.80;38.20;;;;;;5043408;27;88438;-67
2023/03/10 07:54:12;;;;;;;0.87;0.40;;;19.80;38.20;;;;;;5043655;28;87058;-67
2023/03/10 07:56:40;;;;;;;1.70;0.60;;;19.70;38.10;;;;;;5044799;28;86497;-67
2023/03/10 07:59:08;;;;;;;0.17;0.17;;;19.70;38.10;;;;;;5044168;28;88628;-67
2023/03/10 08:01:36;;;;;;;0.50;0.50;;;19.70;38.10;;;;;;5042815;28;87721;-67
2023/03/10 08:04:05;;;;;;;0.50;0.50;;;19.70;38.10;;;;;;5043656;27;88231;-67
2023/03/10 08:06:34;;;;;;;0.53;0.53;;;19.70;38.10;;;;;;5044039;27;86911;-71
2023/03/10 08:09:02;;;;;;;0.20;0.20;;;19.70;38.10;;;;;;5043972;27;89119;-66
2023/03/10 08:11:31;;;;;;;0.50;0.40;;;19.70;38.20;;;;;;5042746;27;88831;-67
2023/03/10 08:13:59;;;;;;;0.13;0.13;;;19.70;38.10;;;;;;5043374;27;86831;-67
2023/03/10 08:16:28;;;;;;;0.47;0.47;;;19.80;38.20;;;;;;5043883;27;87022;-66
2023/03/10 08:18:56;;;;;;;0.70;0.70;;;19.90;38.10;;;;;;5043022;27;89054;-67
2023/03/10 08:21:24;;;;;;;0.30;0.30;;;20.10;38.10;;;;;;5044136;27;88843;-66
2023/03/10 08:23:52;;;;;;;0.30;0.30;;;20.30;38.10;;;;;;5043996;28;87103;-67
2023/03/10 08:26:20;;;;;;;0.73;0.50;;;20.50;38.00;;;;;;5044175;27;87057;-67
2023/03/10 08:28:49;;;;;;;0.40;0.40;;;20.70;38.00;;;;;;5043223;27;90379;-67
2023/03/10 08:31:18;;;;;;;0.20;0.20;;;20.90;37.80;;;;;;5043272;27;89743;-67
2023/03/10 08:33:46;;;;;;;0.47;0.40;;;21.10;37.80;;;;;;5043679;27;86920;-67
2023/03/10 08:36:15;;;;;;;0.40;0.40;;;21.40;37.70;;;;;;5043465;27;86961;-67
2023/03/10 08:38:43;;;;;;;0.30;0.30;;;21.60;37.60;;;;;;5043308;27;88967;-67
2023/03/10 08:41:12;;;;;;;0.50;0.50;;;21.80;37.50;;;;;;5043093;27;88656;-67
2023/03/10 08:43:40;;;;;;;0.20;0.20;;;22.00;37.50;;;;;;5043075;27;87063;-67
2023/03/10 08:46:10;;;;;;;3.13;0.43;;;22.20;37.40;;;;;;5043870;27;86131;-67
2023/03/10 08:48:38;;;;;;;0.53;0.53;;;22.30;37.30;;;;;;5043468;27;89170;-67
2023/03/10 08:51:10;;;;;;;0.50;0.50;;;22.50;37.20;;;;;;5043296;27;88941;-67
2023/03/10 08:53:42;;;;;;;1.20;0.40;;;22.60;37.20;;;;;;5041941;27;87970;-67
2023/03/10 08:56:10;;;;;;;3.87;0.37;;;22.70;37.10;;;;;;5043220;27;86866;-66
2023/03/10 08:58:38;;;;;;;0.27;0.27;;;22.80;37.10;;;;;;5043133;27;89122;-67
2023/03/10 09:01:06;;;;;;;0.30;0.30;;;22.80;37.70;;;;;;5042995;28;88816;-67
2023/03/10 09:03:36;;;;;;;0.50;0.50;;;22.80;37.00;;;;;;5043234;27;86928;-67
2023/03/10 09:06:05;;;;;;;0.50;0.50;;;22.80;37.00;;;;;;5042722;27;88196;-67
2023/03/10 09:08:33;;;;;;;0.40;0.40;;;22.80;37.00;;;;;;5043067;27;88357;-67
2023/03/10 09:11:01;;;;;;;0.40;0.40;;;22.90;37.00;;;;;;5043463;27;86436;-67
2023/03/10 09:13:29;;;;;;;0.20;0.20;;;22.90;36.90;;;;;;5042748;27;87003;-67
2023/03/10 09:15:57;;;;;;;0.50;0.50;;;23.00;36.90;;;;;;5043049;27;87008;-67
2023/03/10 09:18:25;;;;;;;0.63;0.53;;;23.20;36.90;;;;;;5042436;28;90167;-67
2023/03/10 09:20:54;;;;;;;0.20;0.20;;;23.30;37.50;;;;;;5042946;27;89074;-68
2023/03/10 09:23:22;;;;;;;0.43;0.40;;;23.40;36.80;;;;;;5042591;28;86968;-67
2023/03/10 09:25:50;;;;;;;0.30;0.30;;;23.60;36.80;;;;;;5042488;28;87003;-67
2023/03/10 09:28:18;;;;;;;0.23;0.23;;;23.70;36.60;;;;;;5042106;28;88020;-67
2023/03/10 09:30:47;;;;;;;0.43;0.43;;;23.80;36.60;;;;;;5042295;27;88646;-67
2023/03/10 09:33:15;;;;;;;0.20;0.20;;;23.80;36.50;;;;;;5042509;27;87008;-67
2023/03/10 09:35:44;;;;;;;1.03;0.20;;;24.00;36.50;;;;;;5043186;28;86473;-67
2023/03/10 09:38:25;;;;;;;0.40;0.30;;;24.10;36.40;;;;;;5042176;28;89456;-64
2023/03/10 09:40:57;;;;;;;0.20;0.20;;;24.20;36.40;;;;;;5042660;28;88847;-66
2023/03/10 09:43:25;;;;;;;0.30;0.30;;;24.30;36.40;;;;;;5043671;27;88078;-67
2023/03/10 09:45:55;;;;;;;2.50;0.37;;;24.30;36.20;;;;;;5042927;27;86993;-67
2023/03/10 09:48:31;;;;;;;1.10;0.30;;;24.40;36.20;;;;;;5042916;27;88368;-64
2023/03/10 09:51:00;;;;;;;0.20;0.20;;;24.60;36.20;;;;;;5043630;27;88320;-64
2023/03/10 09:53:44;;;;;;;0.33;0.33;;;24.60;36.10;;;;;;5042053;27;87018;-64
2023/03/10 09:56:13;;;;;;;0.20;0.20;;;24.60;36.10;;;;;;5042270;28;86880;-64
2023/03/10 09:58:42;;;;;;;0.37;0.37;;;24.60;36.00;;;;;;5041994;27;88799;-64
2023/03/10 10:01:14;;;;;;;0.20;0.20;;;24.60;36.10;;;;;;5042646;27;88848;-66
2023/03/10 10:03:43;;;;;;;0.40;0.40;;;24.50;36.10;;;;;;5042199;27;87099;-67
2023/03/10 10:06:23;;;;;;;0.20;0.20;;;24.50;36.10;;;;;;5042069;27;86938;-66
2023/03/10 10:08:57;;;;;;;0.53;0.53;;;24.50;36.10;;;;;;5041379;27;89237;-67
2023/03/10 10:11:32;;;;;;;0.43;0.30;;;24.50;36.10;;;;;;5041866;27;89724;-66
2023/03/10 10:14:12;;;;;;;0.20;0.20;;;24.60;36.10;;;;;;5041740;27;87017;-66
2023/03/10 10:16:55;;;;;;;0.40;0.30;;;24.60;36.00;;;;;;5041795;27;87047;-66
2023/03/10 10:19:24;;;;;;;0.47;0.20;;;24.60;35.90;;;;;;5041794;27;89177;-66
2023/03/10 10:21:56;;;;;;;0.30;0.30;;;24.60;35.90;;;;;;5042004;27;88922;-66
2023/03/10 10:24:25;;;;;;;0.20;0.20;;;24.60;36.00;;;;;;5041824;27;87772;-67
2023/03/10 10:26:53;;;;;;;0.30;0.30;;;24.60;35.90;;;;;;5042609;27;86232;-66
2023/03/10 10:29:22;;;;;;;0.30;0.30;;;24.50;35.90;;;;;;5041882;28;89013;-66
2023/03/10 10:32:03;;;;;;;0.40;0.40;;;24.50;36.00;;;;;;5041724;28;88978;-67
2023/03/10 10:34:31;;;;;;;0.30;0.30;;;24.30;36.00;;;;;;5041650;28;87915;-66
2023/03/10 10:36:59;;;;;;;0.53;0.40;;;24.30;36.00;;;;;;5041619;28;87023;-66
2023/03/10 10:39:31;;;;;;;0.40;0.40;;;24.20;36.00;;;;;;5041384;28;89130;-66
2023/03/10 10:42:17;;;;;;;0.30;0.30;;;24.10;36.00;;;;;;5041325;27;89327;-66
2023/03/10 10:44:45;;;;;;;0.30;0.30;;;24.10;36.20;;;;;;5041049;27;86935;-66
2023/03/10 10:47:32;;;;;;;0.30;0.30;;;24.00;36.10;;;;;;5041230;27;87085;-66
2023/03/10 10:50:13;;;;;;;0.40;0.40;;;23.80;36.10;;;;;;5041562;28;89157;-66
2023/03/10 10:52:47;;;;;;;0.23;0.23;;;23.80;36.10;;;;;;5041136;28;89901;-66
2023/03/10 10:55:27;;;;;;;0.70;0.30;;;23.70;36.10;;;;;;5041460;27;87060;-67
2023/03/10 10:57:56;;;;;;;0.20;0.20;;;23.60;36.20;;;;;;5041296;27;86964;-67
2023/03/10 11:00:29;;;;;;;0.30;0.20;;;23.50;36.20;;;;;;5040831;28;90162;-67
2023/03/10 11:02:57;;;;;;;0.27;0.27;;;23.50;36.30;;;;;;5041112;28;89823;-67
2023/03/10 11:05:26;;;;;;;1.90;0.40;;;23.40;36.20;;;;;;5041120;27;86971;-67
2023/03/10 11:07:54;;;;;;;0.20;0.20;;;23.40;36.40;;;;;;5040713;27;86743;-66
2023/03/10 11:10:25;;;;;;;0.40;0.40;;;23.30;36.50;;;;;;5040832;28;89132;-67
2023/03/10 11:12:58;;;;;;;0.30;0.30;;;23.20;36.30;;;;;;5041499;27;89013;-67
2023/03/10 11:15:29;;;;;;;0.30;0.30;;;23.10;36.30;;;;;;5040983;27;87103;-66
2023/03/10 11:17:59;;;;;;;0.30;0.30;;;23.10;36.30;;;;;;5043884;27;86426;-67
2023/03/10 11:20:29;;;;;;;0.67;0.50;;;23.00;36.40;;;;;;5044110;28;89323;-67
2023/03/10 11:23:04;;;;;;;0.30;0.30;;;23.00;36.40;;;;;;5044554;27;88214;-67
2023/03/10 11:25:35;;;;;;;0.40;0.40;;;22.90;36.40;;;;;;5043933;27;87895;-66
2023/03/10 11:28:22;;;;;;;0.50;0.50;;;22.90;36.40;;;;;;5044308;27;86968;-66
2023/03/10 11:30:52;;;;;;;0.30;0.30;;;22.80;36.40;;;;;;5044198;28;87973;-66
2023/03/10 11:33:22;;;;;;;2.63;0.73;;;22.80;36.50;;;;;;5044367;28;87733;-66
2023/03/10 11:35:51;;;;;;;0.33;0.33;;;22.80;36.50;;;;;;5044265;27;86793;-67
2023/03/10 11:38:27;;;;;;;0.60;0.60;;;22.70;36.50;;;;;;5044377;27;86859;-66
2023/03/10 11:40:56;;;;;;;1.67;0.70;;;22.60;36.40;;;;;;5044504;28;88709;-67
2023/03/10 11:43:32;;;;;;;0.50;0.30;;;22.60;36.40;;;;;;5044120;28;89119;-66
2023/03/10 11:46:02;;;;;;;1.00;0.80;;;22.60;36.50;;;;;;5044464;27;87136;-67
2023/03/10 11:48:40;;;;;;;1.00;0.90;;;22.60;37.20;;;;;;5043950;27;87084;-67
2023/03/10 11:51:11;;;;;;;0.70;0.50;;;22.50;36.50;;;;;;5043511;27;89960;-67
2023/03/10 11:53:41;;;;;;;0.50;0.50;;;22.50;37.20;;;;;;5044067;27;89825;-67
2023/03/10 11:56:11;;;;;;;0.70;0.70;;;22.50;36.60;;;;;;5043822;28;86916;-67
2023/03/10 11:58:46;;;;;;;1.03;0.60;;;22.40;36.60;;;;;;5043952;27;88156;-67
2023/03/10 12:01:15;;;;;;;0.50;0.50;;;22.40;36.60;;;;;;5043843;28;89228;-67
2023/03/10 12:03:48;;;;;;;0.97;0.83;;;22.30;36.50;;;;;;5043448;28;89089;-66
2023/03/10 12:06:17;;;;;;;1.03;0.80;;;22.30;36.50;;;;;;5043592;27;86921;-66
2023/03/10 12:08:45;;;;;;;1.03;0.93;;;22.30;36.60;;;;;;5044332;27;86873;-66
2023/03/10 12:11:15;;;;;;;0.90;0.83;;;22.30;36.60;;;;;;5043722;28;89082;-66
2023/03/10 12:13:45;;;;;;;0.73;0.50;;;22.20;36.60;;;;;;5043590;27;88987;-67
2023/03/10 12:16:16;;;;;;;1.47;1.23;;;22.20;36.60;;;;;;5043782;27;87971;-67
2023/03/10 12:18:44;;;;;;;1.23;0.70;;;22.20;36.60;;;;;;5043921;27;87002;-66
2023/03/10 12:21:17;;;;;;;0.47;0.47;;;22.20;36.60;;;;;;5043905;27;89111;-67
2023/03/10 12:23:46;;;;;;;1.80;0.83;;;22.10;36.50;;;;;;5043551;28;88862;-66
2023/03/10 12:26:14;;;;;;;0.90;0.73;;;22.10;36.60;;;;;;5044074;27;87033;-67
2023/03/10 12:28:43;;;;;;;2.47;0.83;;;22.10;36.60;;;;;;5043092;27;86908;-66
2023/03/10 12:31:14;;;;;;;1.10;0.80;;;22.10;36.60;;;;;;5043607;27;87767;-67
2023/03/10 12:33:52;;;;;;;1.33;0.77;;;22.10;36.60;;;;;;5043730;27;87745;-67
2023/03/10 12:36:25;;;;;;;1.13;0.73;;;22.00;36.60;;;;;;5043097;28;87123;-66
2023/03/10 12:38:56;;;;;;;0.53;0.53;;;22.00;36.60;;;;;;5043748;27;87014;-66
2023/03/10 12:41:52;;;;;;;0.90;0.60;;;21.90;36.60;;;;;;5042789;27;88945;-66
2023/03/10 12:44:47;;;;;;;1.13;0.60;;;21.90;36.60;;;;;;5007836;27;89725;-66
2023/03/10 12:47:25;;;;;;;0.83;0.57;;;21.90;36.70;;;;;;5043913;28;86939;-66
2023/03/10 12:49:55;;;;;;;1.37;0.50;;;21.80;36.60;;;;;;5044027;27;87067;-66
2023/03/10 12:52:27;;;;;;;0.77;0.60;;;21.80;36.70;;;;;;5042738;27;87691;-66
2023/03/10 12:55:03;;;;;;;0.30;0.30;;;21.80;36.70;;;;;;5043542;27;88920;-66
2023/03/10 12:57:33;;;;;;;0.70;0.70;;;21.80;36.70;;;;;;5044062;28;87095;-66
2023/03/10 13:00:05;;;;;;;1.13;0.90;;;21.80;36.70;;;;;;5043890;28;86367;-66
2023/03/10 13:02:36;;;;;;;0.73;0.50;;;21.70;36.60;;;;;;5043503;27;87829;-66